sensor_id;sensor_type;location;lat;lon;timestamp;P1;durP1;ratioP1;P2;durP2;ratioP2
43690;SDS011;29293;52.190;21.226;2023-02-08T00:09:25;54.90;;;23.90;;
43690;SDS011;29293;52.190;21.226;2023-02-08T00:24:38;52.70;;;22.50;;
43690;SDS011;29293;52.190;21.226;2023-02-08T00:39:50;59.00;;;26.20;;
43690;SDS011;29293;52.190;21.226;2023-02-08T00:55:00;54.60;;;25.50;;
43690;SDS011;29293;52.190;21.226;2023-02-08T01:10:11;60.20;;;26.00;;
43690;SDS011;29293;52.190;21.226;2023-02-08T01:25:23;69.30;;;30.40;;
43690;SDS011;29293;52.190;21.226;2023-02-08T01:40:36;69.00;;;31.20;;
43690;SDS011;29293;52.190;21.226;2023-02-08T01:55:46;69.70;;;31.90;;
43690;SDS011;29293;52.190;21.226;2023-02-08T02:10:58;64.40;;;31.90;;
43690;SDS011;29293;52.190;21.226;2023-02-08T02:26:22;72.10;;;32.00;;
43690;SDS011;29293;52.190;21.226;2023-02-08T02:41:49;71.20;;;31.70;;
43690;SDS011;29293;52.190;21.226;2023-02-08T02:57:21;69.60;;;31.60;;
43690;SDS011;29293;52.190;21.226;2023-02-08T03:12:35;68.90;;;32.40;;
43690;SDS011;29293;52.190;21.226;2023-02-08T03:27:58;61.90;;;29.90;;
43690;SDS011;29293;52.190;21.226;2023-02-08T03:43:12;69.50;;;30.40;;
43690;SDS011;29293;52.190;21.226;2023-02-08T03:58:25;65.10;;;31.50;;
43690;SDS011;29293;52.190;21.226;2023-02-08T04:13:38;78.80;;;33.80;;
43690;SDS011;29293;52.190;21.226;2023-02-08T04:28:47;65.80;;;31.70;;
43690;SDS011;29293;52.190;21.226;2023-02-08T04:43:56;74.40;;;32.50;;
43690;SDS011;29293;52.190;21.226;2023-02-08T04:59:05;74.30;;;30.30;;
43690;SDS011;29293;52.190;21.226;2023-02-08T05:14:14;72.90;;;31.00;;
43690;SDS011;29293;52.190;21.226;2023-02-08T05:29:23;66.60;;;31.30;;
43690;SDS011;29293;52.190;21.226;2023-02-08T05:44:31;61.30;;;29.70;;
43690;SDS011;29293;52.190;21.226;2023-02-08T05:59:40;59.50;;;27.90;;
43690;SDS011;29293;52.190;21.226;2023-02-08T06:14:49;61.10;;;27.80;;
43690;SDS011;29293;52.190;21.226;2023-02-08T06:29:59;60.30;;;26.40;;
43690;SDS011;29293;52.190;21.226;2023-02-08T06:45:09;49.20;;;22.70;;
43690;SDS011;29293;52.190;21.226;2023-02-08T07:00:19;46.10;;;20.00;;
43690;SDS011;29293;52.190;21.226;2023-02-08T07:15:31;51.90;;;21.20;;
43690;SDS011;29293;52.190;21.226;2023-02-08T07:30:41;38.00;;;17.20;;
43690;SDS011;29293;52.190;21.226;2023-02-08T07:45:50;35.60;;;16.50;;
43690;SDS011;29293;52.190;21.226;2023-02-08T08:01:00;34.30;;;16.90;;
43690;SDS011;29293;52.190;21.226;2023-02-08T08:16:10;33.00;;;15.30;;
43690;SDS011;29293;52.190;21.226;2023-02-08T08:31:20;30.10;;;13.00;;
43690;SDS011;29293;52.190;21.226;2023-02-08T08:46:30;31.60;;;12.80;;
43690;SDS011;29293;52.190;21.226;2023-02-08T09:01:39;24.80;;;10.90;;
43690;SDS011;29293;52.190;21.226;2023-02-08T09:16:49;20.10;;;10.90;;
43690;SDS011;29293;52.190;21.226;2023-02-08T09:31:58;22.10;;;10.00;;
43690;SDS011;29293;52.190;21.226;2023-02-08T09:47:09;15.50;;;9.10;;
43690;SDS011;29293;52.190;21.226;2023-02-08T10:02:26;20.30;;;10.70;;
43690;SDS011;29293;52.190;21.226;2023-02-08T10:33:24;7.00;;;4.30;;
43690;SDS011;29293;52.190;21.226;2023-02-08T10:48:48;5.60;;;3.20;;
43690;SDS011;29293;52.190;21.226;2023-02-08T11:04:21;7.40;;;3.80;;
43690;SDS011;29293;52.190;21.226;2023-02-08T11:19:33;11.30;;;5.30;;
43690;SDS011;29293;52.190;21.226;2023-02-08T11:34:47;8.90;;;4.60;;
43690;SDS011;29293;52.190;21.226;2023-02-08T11:49:58;8.00;;;4.30;;
43690;SDS011;29293;52.190;21.226;2023-02-08T12:05:11;8.50;;;4.00;;
43690;SDS011;29293;52.190;21.226;2023-02-08T12:35:56;9.10;;;4.20;;
43690;SDS011;29293;52.190;21.226;2023-02-08T12:51:25;9.50;;;4.50;;
43690;SDS011;29293;52.190;21.226;2023-02-08T13:06:43;9.00;;;4.30;;
43690;SDS011;29293;52.190;21.226;2023-02-08T13:21:55;9.00;;;4.60;;
43690;SDS011;29293;52.190;21.226;2023-02-08T13:37:16;9.00;;;4.70;;
43690;SDS011;29293;52.190;21.226;2023-02-08T13:52:49;11.00;;;5.10;;
43690;SDS011;29293;52.190;21.226;2023-02-08T14:07:59;9.60;;;5.60;;
43690;SDS011;29293;52.190;21.226;2023-02-08T14:23:20;11.10;;;5.70;;
43690;SDS011;29293;52.190;21.226;2023-02-08T14:38:47;12.30;;;5.50;;
43690;SDS011;29293;52.190;21.226;2023-02-08T14:54:00;10.50;;;5.50;;
43690;SDS011;29293;52.190;21.226;2023-02-08T15:09:21;11.50;;;5.70;;
43690;SDS011;29293;52.190;21.226;2023-02-08T15:24:34;12.30;;;6.00;;
43690;SDS011;29293;52.190;21.226;2023-02-08T15:39:55;12.80;;;6.30;;
43690;SDS011;29293;52.190;21.226;2023-02-08T15:55:06;16.30;;;6.80;;
43690;SDS011;29293;52.190;21.226;2023-02-08T16:10:21;21.40;;;9.10;;
43690;SDS011;29293;52.190;21.226;2023-02-08T16:25:42;24.00;;;11.30;;
43690;SDS011;29293;52.190;21.226;2023-02-08T16:41:16;31.20;;;12.00;;
43690;SDS011;29293;52.190;21.226;2023-02-08T16:56:47;47.60;;;21.30;;
43690;SDS011;29293;52.190;21.226;2023-02-08T17:12:07;59.60;;;23.40;;
43690;SDS011;29293;52.190;21.226;2023-02-08T17:27:18;68.90;;;29.40;;
43690;SDS011;29293;52.190;21.226;2023-02-08T17:42:28;53.90;;;24.00;;
43690;SDS011;29293;52.190;21.226;2023-02-08T17:57:38;42.30;;;20.10;;
43690;SDS011;29293;52.190;21.226;2023-02-08T18:12:48;52.60;;;23.10;;
43690;SDS011;29293;52.190;21.226;2023-02-08T18:27:58;54.50;;;23.30;;
43690;SDS011;29293;52.190;21.226;2023-02-08T18:43:08;49.00;;;20.60;;
43690;SDS011;29293;52.190;21.226;2023-02-08T18:58:19;49.20;;;22.00;;
43690;SDS011;29293;52.190;21.226;2023-02-08T19:13:33;46.70;;;19.80;;
43690;SDS011;29293;52.190;21.226;2023-02-08T19:28:43;76.20;;;31.80;;
43690;SDS011;29293;52.190;21.226;2023-02-08T19:43:52;78.00;;;30.80;;
43690;SDS011;29293;52.190;21.226;2023-02-08T19:59:02;55.00;;;23.50;;
43690;SDS011;29293;52.190;21.226;2023-02-08T20:14:12;71.00;;;29.00;;
43690;SDS011;29293;52.190;21.226;2023-02-08T20:29:21;67.60;;;28.90;;
43690;SDS011;29293;52.190;21.226;2023-02-08T20:44:32;68.20;;;27.70;;
43690;SDS011;29293;52.190;21.226;2023-02-08T20:59:41;73.60;;;28.70;;
43690;SDS011;29293;52.190;21.226;2023-02-08T21:14:51;71.90;;;28.80;;
43690;SDS011;29293;52.190;21.226;2023-02-08T21:30:00;70.00;;;28.70;;
43690;SDS011;29293;52.190;21.226;2023-02-08T21:45:11;68.70;;;27.60;;
43690;SDS011;29293;52.190;21.226;2023-02-08T22:00:21;66.60;;;26.50;;
43690;SDS011;29293;52.190;21.226;2023-02-08T22:15:32;73.40;;;28.20;;
43690;SDS011;29293;52.190;21.226;2023-02-08T22:30:41;78.30;;;30.30;;
43690;SDS011;29293;52.190;21.226;2023-02-08T22:45:56;80.20;;;28.90;;
43690;SDS011;29293;52.190;21.226;2023-02-08T23:01:09;75.10;;;30.00;;
43690;SDS011;29293;52.190;21.226;2023-02-08T23:16:19;73.60;;;30.90;;
43690;SDS011;29293;52.190;21.226;2023-02-08T23:31:29;79.40;;;31.50;;
43690;SDS011;29293;52.190;21.226;2023-02-08T23:46:38;86.70;;;35.00;;
